createdAt,value
2023-02-22T00:01:07.377Z,101173.94
2023-02-22T00:03:34.937Z,101173.09
2023-02-22T00:06:05.812Z,101171.28
2023-02-22T00:08:36.562Z,101174.72
2023-02-22T00:11:08.692Z,101179.19
2023-02-22T00:13:38.312Z,101179.81
2023-02-22T00:16:06.955Z,101177.03
2023-02-22T00:18:34.231Z,101168.16
2023-02-22T00:21:01.885Z,101169.88
2023-02-22T00:23:31.770Z,101166.13
2023-02-22T00:26:00.214Z,101158.34
2023-02-22T00:28:27.755Z,101161.88
2023-02-22T00:30:55.362Z,101165.59
2023-02-22T00:33:23.250Z,101162.31
2023-02-22T00:35:50.509Z,101164.72
2023-02-22T00:38:19.307Z,101171.50
2023-02-22T00:40:46.772Z,101159.31
2023-02-22T00:43:14.915Z,101157.53
2023-02-22T00:45:42.808Z,101165.75
2023-02-22T00:48:11.001Z,101168.88
2023-02-22T00:50:38.241Z,101165.69
2023-02-22T00:53:07.225Z,101159.91
2023-02-22T00:55:37.777Z,101161.28
2023-02-22T00:58:06.491Z,101165.59
2023-02-22T01:00:39.804Z,101153.19
2023-02-22T01:03:10.619Z,101158.72
2023-02-22T01:05:38.247Z,101153.66
2023-02-22T01:08:08.692Z,101157.34
2023-02-22T01:10:37.918Z,101151.56
2023-02-22T01:13:08.721Z,101152.84
2023-02-22T01:15:39.656Z,101153.00
2023-02-22T01:18:07.602Z,101155.97
2023-02-22T01:20:35.346Z,101146.66
2023-02-22T01:23:06.504Z,101155.59
2023-02-22T01:25:35.822Z,101152.34
2023-02-22T01:28:06.762Z,101153.72
2023-02-22T01:30:36.412Z,101144.31
2023-02-22T01:33:07.341Z,101145.97
2023-02-22T01:35:41.128Z,101143.13
2023-02-22T01:38:10.514Z,101136.25
2023-02-22T01:40:41.930Z,101140.09
2023-02-22T01:43:32.584Z,101132.63
2023-02-22T01:46:26.708Z,101132.25
2023-02-22T01:49:06.317Z,101117.97
2023-02-22T01:51:42.984Z,101128.06
2023-02-22T01:54:29.037Z,101118.13
2023-02-22T01:57:24.654Z,101124.06
2023-02-22T01:59:58.782Z,101115.63
2023-02-22T02:02:27.435Z,101121.16
2023-02-22T02:04:57.604Z,101113.56
2023-02-22T02:07:24.892Z,101121.16
2023-02-22T02:10:02.991Z,101115.06
2023-02-22T02:12:35.877Z,101112.41
2023-02-22T02:15:28.900Z,101115.22
2023-02-22T02:18:03.328Z,101114.25
2023-02-22T02:21:08.050Z,101106.00
2023-02-22T02:24:28.492Z,101104.44
2023-02-22T02:27:19.297Z,101110.81
2023-02-22T02:30:35.213Z,101094.19
2023-02-22T02:33:33.484Z,101095.50
2023-02-22T02:36:12.883Z,101088.84
2023-02-22T02:38:57.489Z,101092.22
2023-02-22T02:41:43.038Z,101087.22
2023-02-22T02:44:24.614Z,101088.75
2023-02-22T02:47:01.100Z,101089.06
2023-02-22T02:49:45.909Z,101086.31
2023-02-22T02:52:18.084Z,101083.78
2023-02-22T02:54:47.027Z,101082.44
2023-02-22T02:57:14.247Z,101087.56
2023-02-22T02:59:41.485Z,101078.22
2023-02-22T03:02:52.268Z,101081.06
2023-02-22T03:05:43.887Z,101080.69
2023-02-22T03:08:32.504Z,101078.44
2023-02-22T03:11:16.418Z,101078.31
2023-02-22T03:14:25.283Z,101073.88
2023-02-22T03:17:05.230Z,101066.34
2023-02-22T03:19:43.820Z,101071.13
2023-02-22T03:22:34.867Z,101071.19
2023-02-22T03:25:10.209Z,101061.97
2023-02-22T03:27:46.408Z,101063.84
2023-02-22T03:30:45.412Z,101061.59
2023-02-22T03:33:28.702Z,101067.84
2023-02-22T03:36:00.853Z,101062.94
2023-02-22T03:38:33.667Z,101064.28
2023-02-22T03:41:04.912Z,101058.34
2023-02-22T03:43:41.479Z,101057.72
2023-02-22T03:46:13.077Z,101056.59
2023-02-22T03:48:57.471Z,101058.84
2023-02-22T03:51:24.930Z,101058.50
2023-02-22T03:53:53.631Z,101065.22
2023-02-22T03:56:35.586Z,101068.31
2023-02-22T03:59:09.275Z,101064.25
2023-02-22T04:01:37.193Z,101063.63
2023-02-22T04:04:05.069Z,101065.69
2023-02-22T04:06:32.436Z,101064.00
2023-02-22T04:08:59.704Z,101065.22
2023-02-22T04:11:26.829Z,101060.75
2023-02-22T04:13:54.837Z,101057.13
2023-02-22T04:16:22.053Z,101065.84
2023-02-22T04:18:49.299Z,101064.00
2023-02-22T04:21:16.752Z,101055.47
2023-02-22T04:23:44.183Z,101055.72
2023-02-22T04:26:11.455Z,101058.56
2023-02-22T04:28:38.619Z,101058.41
2023-02-22T04:31:05.905Z,101059.84
2023-02-22T04:33:33.215Z,101057.50
2023-02-22T04:36:00.483Z,101060.53
2023-02-22T04:38:27.898Z,101050.47
2023-02-22T04:40:55.418Z,101043.69
2023-02-22T04:43:22.952Z,101050.25
2023-02-22T04:45:50.117Z,101044.81
2023-02-22T04:48:17.609Z,101042.72
2023-02-22T04:50:47.555Z,101049.34
2023-02-22T04:53:14.906Z,101040.50
2023-02-22T04:55:42.041Z,101039.09
2023-02-22T04:58:09.631Z,101044.09
2023-02-22T05:00:36.885Z,101034.16
2023-02-22T05:03:04.257Z,101034.53
2023-02-22T05:05:31.425Z,101036.81
2023-02-22T05:07:58.571Z,101043.38
2023-02-22T05:10:25.789Z,101036.03
2023-02-22T05:12:52.997Z,101040.34
2023-02-22T05:15:22.424Z,101039.38
2023-02-22T05:17:49.586Z,101042.16
2023-02-22T05:20:35.286Z,101037.41
2023-02-22T05:23:03.905Z,101033.31
2023-02-22T05:25:33.146Z,101038.16
2023-02-22T05:28:08.859Z,101035.38
2023-02-22T05:30:39.679Z,101040.16
2023-02-22T05:33:08.084Z,101042.09
2023-02-22T05:35:37.027Z,101041.03
2023-02-22T05:38:05.256Z,101037.53
2023-02-22T05:40:33.306Z,101042.16
2023-02-22T05:43:02.172Z,101041.09
2023-02-22T05:45:29.843Z,101053.06
2023-02-22T05:47:57.786Z,101045.09
2023-02-22T05:50:25.756Z,101044.38
2023-02-22T05:52:54.549Z,101038.69
2023-02-22T05:55:23.855Z,101042.31
2023-02-22T05:57:52.537Z,101041.53
2023-02-22T06:00:29.064Z,101053.19
2023-02-22T06:02:58.939Z,101041.78
2023-02-22T06:05:27.568Z,101044.13
2023-02-22T06:07:56.145Z,101050.78
2023-02-22T06:10:23.674Z,101046.28
2023-02-22T06:12:52.384Z,101042.56
2023-02-22T06:15:22.573Z,101044.13
2023-02-22T06:17:51.413Z,101047.81
2023-02-22T06:20:22.659Z,101053.88
2023-02-22T06:22:53.230Z,101051.19
2023-02-22T06:25:25.296Z,101046.78
2023-02-22T06:27:52.617Z,101047.91
2023-02-22T06:30:23.924Z,101043.34
2023-02-22T06:32:51.234Z,101038.25
2023-02-22T06:35:18.850Z,101038.25
2023-02-22T06:37:46.642Z,101030.78
2023-02-22T06:40:15.429Z,101039.88
2023-02-22T06:42:42.578Z,101041.06
2023-02-22T06:45:10.565Z,101037.00
2023-02-22T06:47:41.437Z,101036.34
2023-02-22T06:50:22.505Z,101042.47
2023-02-22T06:52:49.840Z,101040.00
2023-02-22T06:55:26.424Z,101040.28
2023-02-22T06:57:53.849Z,101031.09
2023-02-22T07:00:25.112Z,101035.59
2023-02-22T07:02:53.124Z,101027.06
2023-02-22T07:05:22.930Z,101032.63
2023-02-22T07:07:53.202Z,101029.03
2023-02-22T07:10:29.699Z,101027.22
2023-02-22T07:12:57.024Z,101032.78
2023-02-22T07:15:27.984Z,101032.97
2023-02-22T07:17:56.216Z,101035.28
2023-02-22T07:20:25.331Z,101033.56
2023-02-22T07:22:52.904Z,101040.94
2023-02-22T07:25:22.484Z,101036.78
2023-02-22T07:27:49.640Z,101032.22
2023-02-22T07:30:25.843Z,101030.06
2023-02-22T07:32:55.481Z,101033.31
2023-02-22T07:35:39.447Z,101027.34
2023-02-22T07:38:08.191Z,101018.91
2023-02-22T07:40:37.488Z,101027.56
2023-02-22T07:43:17.276Z,101022.03
2023-02-22T07:45:45.205Z,101025.53
2023-02-22T07:48:17.102Z,101020.41
2023-02-22T07:50:45.449Z,101012.94
2023-02-22T07:53:19.548Z,101020.41
2023-02-22T07:55:50.877Z,101013.47
2023-02-22T07:58:23.692Z,101024.31
2023-02-22T08:00:51.459Z,101011.09
2023-02-22T08:03:21.809Z,101020.25
2023-02-22T08:05:53.249Z,101014.78
2023-02-22T08:08:21.024Z,101015.53
2023-02-22T08:10:50.661Z,101004.84
2023-02-22T08:13:19.563Z,101006.31
2023-02-22T08:15:49.204Z,101008.75
2023-02-22T08:18:19.088Z,101002.72
2023-02-22T08:20:49.523Z,101002.56
2023-02-22T08:23:19.180Z,101001.47
2023-02-22T08:25:46.444Z,100997.78
2023-02-22T08:28:17.984Z,101007.44
2023-02-22T08:30:45.190Z,101000.53
2023-02-22T08:33:16.807Z,101006.91
2023-02-22T08:35:44.137Z,101000.19
2023-02-22T08:38:26.835Z,100993.31
2023-02-22T08:40:54.664Z,101005.19
2023-02-22T08:43:23.259Z,100998.03
2023-02-22T08:45:51.593Z,100991.47
2023-02-22T08:48:20.260Z,100991.06
2023-02-22T08:50:47.775Z,100989.75
2023-02-22T08:53:16.886Z,100984.16
2023-02-22T08:55:44.904Z,100988.53
2023-02-22T08:58:13.427Z,100989.56
2023-02-22T09:00:43.173Z,100989.44
2023-02-22T09:03:14.613Z,100989.38
2023-02-22T09:05:43.831Z,100988.19
2023-02-22T09:08:11.093Z,100987.03
2023-02-22T09:10:38.469Z,100986.00
2023-02-22T09:13:06.220Z,100986.53
2023-02-22T09:15:36.129Z,100982.41
2023-02-22T09:18:08.377Z,100980.06
2023-02-22T09:20:36.143Z,100982.69
2023-02-22T09:23:06.365Z,100971.41
2023-02-22T09:25:36.272Z,100973.81
2023-02-22T09:28:03.494Z,100960.13
2023-02-22T09:30:35.462Z,100960.47
2023-02-22T09:33:10.202Z,100962.81
2023-02-22T09:35:42.378Z,100954.81
2023-02-22T09:38:11.407Z,100954.94
2023-02-22T09:40:45.455Z,100944.75
2023-02-22T09:43:32.608Z,100943.50
2023-02-22T09:46:36.251Z,100943.72
2023-02-22T09:49:31.211Z,100936.88
2023-02-22T09:52:24.039Z,100942.44
2023-02-22T09:55:28.794Z,100922.13
2023-02-22T09:58:02.711Z,100917.81
2023-02-22T10:00:43.706Z,100918.00
2023-02-22T10:03:36.459Z,100924.06
2023-02-22T10:06:11.877Z,100915.34
2023-02-22T10:08:39.193Z,100917.84
2023-02-22T10:11:31.339Z,100903.44
2023-02-22T10:14:42.955Z,100908.75
2023-02-22T10:17:13.934Z,100908.97
2023-02-22T10:20:13.775Z,100905.13
2023-02-22T10:23:44.139Z,100903.25
2023-02-22T10:26:12.252Z,100888.47
2023-02-22T10:28:52.543Z,100896.56
2023-02-22T10:31:28.283Z,100891.06
2023-02-22T10:34:01.916Z,100894.91
2023-02-22T10:36:29.747Z,100890.00
2023-02-22T10:39:20.685Z,100885.25
2023-02-22T10:41:57.249Z,100891.28
2023-02-22T10:44:24.917Z,100882.88
2023-02-22T10:46:53.439Z,100888.41
2023-02-22T10:49:24.381Z,100877.94
2023-02-22T10:52:02.185Z,100880.41
2023-02-22T10:54:40.849Z,100886.03
2023-02-22T10:57:12.076Z,100876.88
2023-02-22T10:59:42.439Z,100870.59
2023-02-22T11:02:23.365Z,100877.31
2023-02-22T11:04:54.726Z,100879.06
2023-02-22T11:07:30.144Z,100870.97
2023-02-22T11:10:00.739Z,100872.59
2023-02-22T11:12:37.438Z,100870.25
2023-02-22T11:15:16.521Z,100866.06
2023-02-22T11:17:50.502Z,100869.00
2023-02-22T11:20:39.596Z,100857.91
2023-02-22T11:23:08.199Z,100858.84
2023-02-22T11:25:40.255Z,100866.88
2023-02-22T11:28:14.950Z,100862.78
2023-02-22T11:30:48.164Z,100857.66
2023-02-22T11:33:23.897Z,100850.00
2023-02-22T11:35:57.083Z,100843.06
2023-02-22T11:38:29.142Z,100844.44
2023-02-22T11:41:19.597Z,100829.75
2023-02-22T11:43:49.791Z,100826.94
2023-02-22T11:46:23.345Z,100826.50
2023-02-22T11:49:09.021Z,100822.72
2023-02-22T11:52:36.596Z,100816.38
2023-02-22T11:55:36.472Z,100808.75
2023-02-22T11:58:36.644Z,100800.78
2023-02-22T12:01:37.905Z,100795.84
2023-02-22T12:04:42.912Z,100793.66
2023-02-22T12:07:31.815Z,100791.81
2023-02-22T12:10:23.335Z,100792.97
2023-02-22T12:13:23.945Z,100785.50
2023-02-22T12:16:09.137Z,100783.41
2023-02-22T12:19:28.212Z,100781.44
2023-02-22T12:22:07.800Z,100781.38
2023-02-22T12:25:03.938Z,100776.44
2023-02-22T12:27:45.791Z,100772.38
2023-02-22T12:30:16.781Z,100771.06
2023-02-22T12:32:51.352Z,100771.00
2023-02-22T12:35:27.079Z,100770.44
2023-02-22T12:37:59.927Z,100764.22
2023-02-22T12:40:57.044Z,100774.53
2023-02-22T12:43:36.389Z,100762.81
2023-02-22T12:46:30.915Z,100756.50
2023-02-22T12:49:13.801Z,100759.22
2023-02-22T12:52:21.651Z,100752.25
2023-02-22T12:55:04.413Z,100751.31
2023-02-22T12:57:49.182Z,100747.63
2023-02-22T13:00:39.422Z,100752.00
2023-02-22T13:03:32.788Z,100742.78
2023-02-22T13:06:36.223Z,100736.56
2023-02-22T13:09:55.226Z,100732.44
2023-02-22T13:12:52.350Z,100730.50
2023-02-22T13:15:39.563Z,100730.53
2023-02-22T13:19:03.766Z,100723.41
2023-02-22T13:21:33.829Z,100727.31
2023-02-22T13:24:32.944Z,100723.53
2023-02-22T13:27:13.175Z,100719.56
2023-02-22T13:29:46.703Z,100717.72
2023-02-22T13:32:51.502Z,100709.03
2023-02-22T13:35:55.435Z,100710.91
2023-02-22T13:38:53.618Z,100713.44
2023-02-22T13:41:33.540Z,100709.44
2023-02-22T13:44:15.375Z,100712.31
2023-02-22T13:47:25.624Z,100706.50
2023-02-22T13:50:44.837Z,100699.03
2023-02-22T13:53:21.267Z,100699.03
2023-02-22T13:55:56.998Z,100691.75
2023-02-22T13:58:25.660Z,100690.75
2023-02-22T14:00:56.956Z,100697.66
2023-02-22T14:03:40.583Z,100692.44
2023-02-22T14:06:30.474Z,100697.38
2023-02-22T14:08:57.687Z,100688.88
2023-02-22T14:11:33.847Z,100689.72
2023-02-22T14:14:00.993Z,100684.84
2023-02-22T14:16:30.696Z,100684.34
2023-02-22T14:19:20.614Z,100684.47
2023-02-22T14:22:03.968Z,100683.47
2023-02-22T14:24:45.410Z,100683.28
2023-02-22T14:27:15.460Z,100683.34
2023-02-22T14:29:56.227Z,100675.66
2023-02-22T14:32:35.394Z,100678.09
2023-02-22T14:35:26.412Z,100677.34
2023-02-22T14:38:00.405Z,100677.47
2023-02-22T14:40:36.126Z,100677.16
2023-02-22T14:43:23.830Z,100676.00
2023-02-22T14:46:00.245Z,100672.28
2023-02-22T14:48:39.325Z,100673.94
2023-02-22T14:51:21.959Z,100663.63
2023-02-22T14:53:53.932Z,100658.47
2023-02-22T14:56:41.174Z,100659.16
2023-02-22T14:59:24.027Z,100658.47
2023-02-22T15:02:11.798Z,100655.06
2023-02-22T15:04:43.761Z,100654.63
2023-02-22T15:07:30.816Z,100651.16
2023-02-22T15:10:25.053Z,100658.53
2023-02-22T15:13:12.320Z,100656.50
2023-02-22T15:15:49.658Z,100649.59
2023-02-22T15:18:43.043Z,100649.47
2023-02-22T15:21:17.877Z,100656.09
2023-02-22T15:23:53.516Z,100654.19
2023-02-22T15:26:38.208Z,100648.44
2023-02-22T15:29:32.956Z,100652.19
2023-02-22T15:32:00.187Z,100650.06
2023-02-22T15:34:31.727Z,100659.50
2023-02-22T15:37:25.390Z,100650.53
2023-02-22T15:39:59.288Z,100650.47
2023-02-22T15:42:30.312Z,100646.75
2023-02-22T15:44:58.061Z,100640.16
2023-02-22T15:47:29.391Z,100643.31
2023-02-22T15:50:23.225Z,100642.22
2023-02-22T15:53:00.199Z,100646.09
2023-02-22T15:55:35.823Z,100642.53
2023-02-22T15:58:14.896Z,100643.19
2023-02-22T16:00:46.794Z,100644.50
2023-02-22T16:03:28.261Z,100634.91
2023-02-22T16:05:58.429Z,100637.50
2023-02-22T16:08:52.607Z,100641.19
2023-02-22T16:11:29.894Z,100647.38
2023-02-22T16:14:04.757Z,100644.78
2023-02-22T16:16:41.430Z,100647.78
2023-02-22T16:19:17.606Z,100650.28
2023-02-22T16:22:28.810Z,100651.00
2023-02-22T16:25:17.824Z,100651.75
2023-02-22T16:28:01.447Z,100660.03
2023-02-22T16:30:39.360Z,100661.25
2023-02-22T16:33:13.529Z,100666.16
2023-02-22T16:35:43.310Z,100662.53
2023-02-22T16:38:16.618Z,100651.84
2023-02-22T16:40:54.599Z,100659.84
2023-02-22T16:43:27.550Z,100658.88
2023-02-22T16:45:54.761Z,100663.28
2023-02-22T16:48:26.638Z,100663.84
2023-02-22T16:50:58.714Z,100667.34
2023-02-22T16:53:30.645Z,100663.00
2023-02-22T16:56:04.498Z,100664.28
2023-02-22T16:58:38.956Z,100666.72
2023-02-22T17:01:06.572Z,100657.13
2023-02-22T17:03:33.865Z,100659.53
2023-02-22T17:06:01.355Z,100668.94
2023-02-22T17:08:28.482Z,100671.63
2023-02-22T17:10:57.679Z,100669.22
2023-02-22T17:13:29.128Z,100669.09
2023-02-22T17:15:57.888Z,100674.91
2023-02-22T17:18:28.496Z,100676.22
2023-02-22T17:20:56.504Z,100680.50
2023-02-22T17:23:24.228Z,100673.28
2023-02-22T17:26:03.276Z,100677.38
2023-02-22T17:28:31.503Z,100678.63
2023-02-22T17:31:01.393Z,100674.63
2023-02-22T17:33:34.240Z,100684.72
2023-02-22T17:36:04.927Z,100673.47
2023-02-22T17:38:32.246Z,100679.22
2023-02-22T17:41:01.329Z,100677.00
2023-02-22T17:43:29.485Z,100675.06
2023-02-22T17:45:57.185Z,100682.28
2023-02-22T17:48:24.924Z,100676.38
2023-02-22T17:50:53.079Z,100678.38
2023-02-22T17:53:22.723Z,100673.22
2023-02-22T17:55:50.543Z,100677.94
2023-02-22T17:58:18.402Z,100678.38
2023-02-22T18:00:49.850Z,100684.16
2023-02-22T18:03:21.567Z,100689.56
2023-02-22T18:05:54.492Z,100679.22
2023-02-22T18:08:25.383Z,100693.66
2023-02-22T18:10:56.327Z,100699.22
2023-02-22T18:13:27.734Z,100694.59
2023-02-22T18:15:59.836Z,100691.25
2023-02-22T18:18:28.061Z,100696.31
2023-02-22T18:20:59.363Z,100699.41
2023-02-22T18:23:30.287Z,100697.63
2023-02-22T18:26:14.852Z,100705.91
2023-02-22T18:28:42.068Z,100707.69
2023-02-22T18:31:15.354Z,100699.97
2023-02-22T18:33:48.031Z,100706.59
2023-02-22T18:36:17.635Z,100710.25
2023-02-22T18:38:45.357Z,100706.47
2023-02-22T18:41:16.849Z,100704.19
2023-02-22T18:43:46.282Z,100711.19
2023-02-22T18:46:16.346Z,100698.41
2023-02-22T18:48:45.534Z,100696.03
2023-02-22T18:51:17.258Z,100705.78
2023-02-22T18:53:47.504Z,100702.88
2023-02-22T18:56:21.581Z,100695.78
2023-02-22T18:58:54.429Z,100701.75
2023-02-22T19:01:22.683Z,100692.78
2023-02-22T19:03:51.726Z,100696.69
2023-02-22T19:06:22.398Z,100698.50
2023-02-22T19:08:50.810Z,100695.13
2023-02-22T19:11:22.806Z,100701.72
2023-02-22T19:13:54.165Z,100703.44
2023-02-22T19:16:23.964Z,100701.06
2023-02-22T19:18:56.794Z,100695.53
2023-02-22T19:21:25.971Z,100691.03
2023-02-22T19:23:53.341Z,100692.78
2023-02-22T19:26:24.661Z,100692.63
2023-02-22T19:28:57.056Z,100692.47
2023-02-22T19:31:33.453Z,100687.16
2023-02-22T19:34:09.354Z,100686.44
2023-02-22T19:36:44.807Z,100685.81
2023-02-22T19:39:20.703Z,100680.44
2023-02-22T19:41:47.873Z,100683.41
2023-02-22T19:44:15.020Z,100682.59
2023-02-22T19:46:42.213Z,100682.28
2023-02-22T19:49:09.456Z,100680.44
2023-02-22T19:51:37.470Z,100678.53
2023-02-22T19:54:12.392Z,100680.88
2023-02-22T19:56:39.524Z,100678.06
2023-02-22T19:59:13.355Z,100677.72
2023-02-22T20:01:44.158Z,100676.53
2023-02-22T20:04:21.211Z,100681.78
2023-02-22T20:06:54.747Z,100677.84
2023-02-22T20:09:29.841Z,100681.06
2023-02-22T20:11:57.413Z,100681.53
2023-02-22T20:14:28.370Z,100676.41
2023-02-22T20:16:57.262Z,100682.81
2023-02-22T20:19:26.587Z,100674.25
2023-02-22T20:21:55.965Z,100681.59
2023-02-22T20:24:24.282Z,100684.84
2023-02-22T20:26:55.650Z,100688.13
2023-02-22T20:29:29.437Z,100685.81
2023-02-22T20:31:59.513Z,100685.09
2023-02-22T20:34:31.088Z,100685.72
2023-02-22T20:36:59.483Z,100693.28
2023-02-22T20:39:27.177Z,100695.59
2023-02-22T20:41:54.609Z,100690.59
2023-02-22T20:44:22.059Z,100696.25
2023-02-22T20:46:49.248Z,100692.09
2023-02-22T20:49:19.995Z,100694.28
2023-02-22T20:51:48.693Z,100694.00
2023-02-22T20:54:17.106Z,100688.63
2023-02-22T20:56:46.614Z,100677.19
2023-02-22T20:59:17.801Z,100688.16
2023-02-22T21:01:47.432Z,100689.38
2023-02-22T21:04:14.835Z,100691.31
2023-02-22T21:06:43.003Z,100681.59
2023-02-22T21:09:17.727Z,100687.31
2023-02-22T21:11:45.594Z,100690.28
2023-02-22T21:14:18.390Z,100688.72
2023-02-22T21:16:49.915Z,100687.13
2023-02-22T21:19:25.633Z,100683.50
2023-02-22T21:21:58.221Z,100685.72
2023-02-22T21:24:28.443Z,100682.84
2023-02-22T21:26:58.961Z,100678.75
2023-02-22T21:29:28.952Z,100668.25
2023-02-22T21:31:56.629Z,100672.88
2023-02-22T21:34:25.655Z,100670.84
2023-02-22T21:36:53.248Z,100672.50
2023-02-22T21:39:20.896Z,100674.72
2023-02-22T21:41:51.628Z,100673.66
2023-02-22T21:44:20.009Z,100666.72
2023-02-22T21:46:50.803Z,100664.72
2023-02-22T21:49:23.117Z,100665.75
2023-02-22T21:51:51.827Z,100665.66
2023-02-22T21:54:19.782Z,100665.38
2023-02-22T21:56:47.809Z,100660.81
2023-02-22T21:59:21.141Z,100658.97
2023-02-22T22:01:55.290Z,100649.28
2023-02-22T22:04:30.301Z,100645.75
2023-02-22T22:07:00.026Z,100654.41
2023-02-22T22:09:32.610Z,100647.91
2023-02-22T22:12:04.872Z,100652.25
2023-02-22T22:14:34.071Z,100645.41
2023-02-22T22:17:02.746Z,100653.94
2023-02-22T22:19:34.174Z,100642.38
2023-02-22T22:22:01.428Z,100644.69
2023-02-22T22:24:33.589Z,100644.44
2023-02-22T22:27:03.763Z,100639.19
2023-02-22T22:29:34.170Z,100642.97
2023-02-22T22:32:02.234Z,100647.84
2023-02-22T22:34:29.888Z,100643.56
2023-02-22T22:36:58.094Z,100652.31
2023-02-22T22:39:26.884Z,100646.94
2023-02-22T22:41:54.604Z,100649.13
2023-02-22T22:44:28.732Z,100656.53
2023-02-22T22:46:55.878Z,100647.47
2023-02-22T22:49:25.437Z,100642.72
2023-02-22T22:51:53.371Z,100644.28
2023-02-22T22:54:20.484Z,100652.78
2023-02-22T22:56:47.624Z,100651.94
2023-02-22T22:59:15.217Z,100648.09
2023-02-22T23:01:44.602Z,100651.00
2023-02-22T23:04:18.000Z,100652.47
2023-02-22T23:06:50.496Z,100658.47
2023-02-22T23:09:25.363Z,100666.53
2023-02-22T23:12:08.484Z,100652.16
2023-02-22T23:14:39.567Z,100647.94
2023-02-22T23:17:26.720Z,100652.72
2023-02-22T23:19:53.935Z,100648.84
2023-02-22T23:22:21.201Z,100651.94
2023-02-22T23:24:48.468Z,100654.22
2023-02-22T23:27:15.685Z,100659.81
2023-02-22T23:29:46.424Z,100654.94
2023-02-22T23:32:14.213Z,100668.44
2023-02-22T23:34:41.881Z,100657.88
2023-02-22T23:37:10.458Z,100655.22
2023-02-22T23:39:38.459Z,100664.00
2023-02-22T23:42:08.698Z,100664.94
2023-02-22T23:44:36.100Z,100661.66
2023-02-22T23:47:04.305Z,100658.00
2023-02-22T23:49:38.649Z,100658.06
2023-02-22T23:52:08.378Z,100656.00
2023-02-22T23:54:40.211Z,100672.50
2023-02-22T23:57:08.764Z,100661.91
2023-02-22T23:59:40.334Z,100671.19
